createdAt,value
2022-12-03T00:00:01.135Z,14.18
2022-12-03T00:02:32.357Z,11.05
2022-12-03T00:04:59.750Z,12.00
2022-12-03T00:07:27.041Z,12.35
2022-12-03T00:09:54.368Z,12.70
2022-12-03T00:12:21.377Z,12.10
2022-12-03T00:14:48.696Z,10.93
2022-12-03T00:17:16.061Z,11.02
2022-12-03T00:19:43.246Z,13.38
2022-12-03T00:22:12.639Z,11.95
2022-12-03T00:24:40.080Z,11.27
2022-12-03T00:27:07.121Z,12.60
2022-12-03T00:29:34.188Z,12.15
2022-12-03T00:32:01.393Z,11.40
2022-12-03T00:34:28.494Z,11.35
2022-12-03T00:36:55.515Z,12.35
2022-12-03T00:39:22.686Z,11.70
2022-12-03T00:41:49.793Z,10.45
2022-12-03T00:44:18.313Z,11.63
2022-12-03T00:46:45.427Z,12.55
2022-12-03T00:49:12.681Z,11.05
2022-12-03T00:51:39.788Z,10.75
2022-12-03T00:54:06.923Z,13.07
2022-12-03T00:56:35.290Z,10.07
2022-12-03T00:59:02.351Z,12.27
2022-12-03T01:01:29.481Z,10.27
2022-12-03T01:03:56.749Z,9.85
2022-12-03T01:06:23.856Z,9.90
2022-12-03T01:08:50.939Z,12.15
2022-12-03T01:11:36.522Z,10.82
2022-12-03T01:16:31.294Z,11.88
2022-12-03T01:18:59.135Z,10.00
2022-12-03T01:21:26.215Z,9.93
2022-12-03T01:23:53.297Z,10.43
2022-12-03T01:26:20.562Z,10.60
2022-12-03T01:28:47.641Z,12.35
2022-12-03T01:31:33.829Z,9.80
2022-12-03T01:34:01.207Z,10.45
2022-12-03T01:36:29.353Z,12.32
2022-12-03T01:38:56.448Z,10.02
2022-12-03T01:41:25.392Z,11.23
2022-12-03T01:43:54.404Z,9.50
2022-12-03T01:46:24.129Z,10.00
2022-12-03T01:48:53.952Z,10.18
2022-12-03T01:51:21.378Z,8.70
2022-12-03T01:53:49.033Z,9.98
2022-12-03T01:56:17.402Z,8.93
2022-12-03T01:58:45.924Z,8.50
2022-12-03T02:01:15.894Z,8.55
2022-12-03T02:03:44.413Z,9.60
2022-12-03T02:06:20.624Z,10.05
2022-12-03T02:08:48.618Z,8.93
2022-12-03T02:11:25.564Z,10.75
2022-12-03T02:14:16.847Z,9.07
2022-12-03T02:16:44.698Z,9.40
2022-12-03T02:19:41.157Z,9.02
2022-12-03T02:22:20.457Z,8.88
2022-12-03T02:25:03.910Z,10.30
2022-12-03T02:27:30.996Z,10.75
2022-12-03T02:29:58.281Z,10.43
2022-12-03T02:32:25.919Z,9.55
2022-12-03T02:34:53.444Z,10.73
2022-12-03T02:37:29.797Z,9.43
2022-12-03T02:40:01.701Z,9.27
2022-12-03T02:42:36.897Z,11.30
2022-12-03T02:45:11.588Z,11.27
2022-12-03T02:47:45.972Z,10.05
2022-12-03T02:50:17.629Z,11.57
2022-12-03T02:52:46.664Z,8.73
2022-12-03T02:55:15.804Z,11.85
2022-12-03T02:57:46.441Z,11.27
2022-12-03T03:00:14.341Z,8.88
2022-12-03T03:02:42.794Z,12.77
2022-12-03T03:05:25.660Z,9.68
2022-12-03T03:07:52.815Z,10.80
2022-12-03T03:10:23.144Z,12.88
2022-12-03T03:12:52.871Z,11.75
2022-12-03T03:15:20.971Z,12.20
2022-12-03T03:17:50.037Z,9.10
2022-12-03T03:20:17.718Z,11.75
2022-12-03T03:22:44.897Z,10.50
2022-12-03T03:25:18.929Z,10.38
2022-12-03T03:27:46.936Z,10.82
2022-12-03T03:30:14.832Z,11.00
2022-12-03T03:32:43.079Z,10.93
2022-12-03T03:35:11.619Z,11.13
2022-12-03T03:37:39.235Z,10.30
2022-12-03T03:40:07.862Z,10.63
2022-12-03T03:42:35.682Z,9.43
2022-12-03T03:45:02.867Z,9.38
2022-12-03T03:47:30.807Z,12.45
2022-12-03T03:49:57.950Z,9.55
2022-12-03T03:52:25.331Z,9.73
2022-12-03T03:54:52.793Z,9.13
2022-12-03T03:57:20.342Z,9.00
2022-12-03T03:59:47.461Z,9.20
2022-12-03T04:02:22.774Z,10.25
2022-12-03T04:04:52.220Z,11.85
2022-12-03T04:07:19.807Z,10.40
2022-12-03T04:09:47.000Z,11.05
2022-12-03T04:12:32.765Z,10.38
2022-12-03T04:15:01.269Z,10.98
2022-12-03T04:17:28.625Z,10.63
2022-12-03T04:19:56.039Z,13.48
2022-12-03T04:22:41.360Z,11.30
2022-12-03T04:30:40.630Z,10.00
2022-12-03T04:33:26.175Z,11.48
2022-12-03T04:38:20.530Z,10.43
2022-12-03T04:41:04.393Z,13.55
2022-12-03T04:43:33.866Z,12.80
2022-12-03T04:46:01.704Z,11.95
2022-12-03T04:48:30.200Z,12.65
2022-12-03T04:50:57.454Z,12.90
2022-12-03T04:53:24.661Z,16.10
2022-12-03T04:55:52.944Z,12.98
2022-12-03T04:58:20.116Z,14.63
2022-12-03T05:00:47.386Z,13.80
2022-12-03T05:03:14.555Z,11.68
2022-12-03T05:05:42.057Z,14.57
2022-12-03T05:08:09.420Z,17.58
2022-12-03T05:10:36.500Z,14.77
2022-12-03T05:13:03.703Z,16.23
2022-12-03T05:15:30.780Z,14.60
2022-12-03T05:17:57.913Z,15.48
2022-12-03T05:20:46.979Z,13.57
2022-12-03T05:23:18.573Z,15.07
2022-12-03T05:25:45.788Z,14.45
2022-12-03T05:28:13.203Z,13.95
2022-12-03T05:30:40.552Z,18.88
2022-12-03T05:33:08.054Z,15.88
2022-12-03T05:35:35.320Z,14.57
2022-12-03T05:38:02.353Z,15.50
2022-12-03T05:40:29.548Z,19.02
2022-12-03T05:43:01.444Z,18.08
2022-12-03T05:45:31.480Z,18.80
2022-12-03T05:48:00.521Z,14.30
2022-12-03T05:50:30.330Z,14.93
2022-12-03T05:52:58.061Z,16.40
2022-12-03T05:55:26.128Z,18.88
2022-12-03T05:57:53.375Z,17.52
2022-12-03T06:00:26.350Z,15.65
2022-12-03T06:02:54.184Z,16.60
2022-12-03T06:05:22.500Z,22.42
2022-12-03T06:07:51.271Z,15.05
2022-12-03T06:10:23.529Z,14.55
2022-12-03T06:12:51.290Z,18.45
2022-12-03T06:15:19.139Z,15.93
2022-12-03T06:17:46.768Z,14.75
2022-12-03T06:20:17.077Z,14.57
2022-12-03T06:22:44.275Z,16.92
2022-12-03T06:25:12.196Z,14.27
2022-12-03T06:27:41.295Z,14.13
2022-12-03T06:30:13.143Z,14.18
2022-12-03T06:32:41.709Z,15.27
2022-12-03T06:35:09.274Z,12.77
2022-12-03T06:37:36.346Z,13.95
2022-12-03T06:40:04.559Z,16.40
2022-12-03T06:42:31.650Z,12.38
2022-12-03T06:44:58.803Z,13.68
2022-12-03T06:47:26.073Z,15.63
2022-12-03T06:49:53.190Z,15.63
2022-12-03T06:52:20.855Z,12.95
2022-12-03T06:54:47.917Z,12.23
2022-12-03T06:57:15.751Z,11.80
2022-12-03T06:59:42.932Z,16.05
2022-12-03T07:02:11.650Z,13.48
2022-12-03T07:04:42.138Z,14.65
2022-12-03T07:07:13.114Z,14.23
2022-12-03T07:09:40.330Z,11.48
2022-12-03T07:12:07.487Z,11.93
2022-12-03T07:14:34.688Z,12.50
2022-12-03T07:17:02.328Z,12.80
2022-12-03T07:19:32.723Z,15.13
2022-12-03T07:22:01.036Z,12.50
2022-12-03T07:24:28.813Z,12.25
2022-12-03T07:26:56.472Z,12.52
2022-12-03T07:29:24.048Z,13.18
2022-12-03T07:31:51.677Z,12.77
2022-12-03T07:34:18.968Z,11.68
2022-12-03T07:36:46.309Z,11.68
2022-12-03T07:39:14.047Z,11.25
2022-12-03T07:41:41.136Z,16.85
2022-12-03T07:44:14.248Z,12.23
2022-12-03T07:46:42.530Z,11.48
2022-12-03T07:49:09.963Z,14.55
2022-12-03T07:51:37.263Z,14.82
2022-12-03T07:54:05.165Z,12.60
2022-12-03T07:56:32.281Z,13.05
2022-12-03T07:59:00.709Z,13.43
2022-12-03T08:01:27.865Z,10.23
2022-12-03T08:03:55.328Z,9.80
2022-12-03T08:06:23.228Z,10.02
2022-12-03T08:08:50.484Z,14.15
2022-12-03T08:11:18.011Z,12.70
2022-12-03T08:13:45.039Z,10.70
2022-12-03T08:16:18.336Z,11.18
2022-12-03T08:18:47.122Z,12.32
2022-12-03T08:21:17.209Z,9.95
2022-12-03T08:23:44.714Z,14.55
2022-12-03T08:26:25.362Z,10.60
2022-12-03T08:28:53.352Z,11.80
2022-12-03T08:31:32.850Z,9.63
2022-12-03T08:34:19.701Z,14.00
2022-12-03T08:36:48.257Z,14.07
2022-12-03T08:39:34.000Z,11.52
2022-12-03T08:42:30.761Z,13.75
2022-12-03T08:45:32.443Z,11.15
2022-12-03T08:48:07.632Z,13.27
2022-12-03T08:53:29.418Z,12.05
2022-12-03T08:56:05.082Z,11.88
2022-12-03T08:58:43.813Z,11.70
2022-12-03T09:01:10.962Z,11.68
2022-12-03T09:03:42.875Z,10.18
2022-12-03T09:06:11.610Z,12.60
2022-12-03T09:08:39.070Z,10.93
2022-12-03T09:11:06.340Z,10.38
2022-12-03T09:13:33.429Z,8.65
2022-12-03T09:16:00.525Z,9.55
2022-12-03T09:18:27.851Z,9.77
2022-12-03T09:20:56.568Z,10.60
2022-12-03T09:23:24.010Z,15.07
2022-12-03T09:25:51.062Z,12.45
2022-12-03T09:28:18.272Z,8.60
2022-12-03T09:30:45.555Z,13.10
2022-12-03T09:33:14.897Z,12.68
2022-12-03T09:35:42.080Z,9.85
2022-12-03T09:38:09.386Z,13.48
2022-12-03T09:40:36.722Z,12.38
2022-12-03T09:43:04.734Z,10.90
2022-12-03T09:45:31.928Z,9.43
2022-12-03T09:48:01.639Z,13.63
2022-12-03T09:50:29.463Z,8.52
2022-12-03T09:53:00.201Z,10.40
2022-12-03T09:55:28.706Z,8.57
2022-12-03T09:57:58.131Z,9.35
2022-12-03T10:00:28.443Z,7.70
2022-12-03T10:02:59.694Z,9.85
2022-12-03T10:05:28.651Z,11.18
2022-12-03T10:08:00.529Z,10.38
2022-12-03T10:10:27.989Z,9.82
2022-12-03T10:12:55.274Z,8.20
2022-12-03T10:15:23.731Z,10.80
2022-12-03T10:17:56.465Z,9.65
2022-12-03T10:20:26.137Z,8.10
2022-12-03T10:22:53.402Z,8.52
2022-12-03T10:25:22.903Z,12.52
2022-12-03T10:28:07.113Z,10.65
2022-12-03T10:30:34.535Z,10.48
2022-12-03T10:33:17.363Z,12.25
2022-12-03T10:35:46.233Z,9.10
2022-12-03T10:38:25.339Z,12.00
2022-12-03T10:40:52.882Z,9.95
2022-12-03T10:43:19.919Z,9.32
2022-12-03T10:46:09.752Z,10.00
2022-12-03T10:48:36.988Z,10.45
2022-12-03T10:51:17.087Z,6.80
2022-12-03T10:53:44.618Z,9.27
2022-12-03T10:56:24.575Z,6.68
2022-12-03T10:58:52.129Z,6.88
2022-12-03T11:01:25.602Z,7.90
2022-12-03T11:03:54.569Z,7.20
2022-12-03T11:06:23.635Z,8.65
2022-12-03T11:08:58.540Z,8.55
2022-12-03T11:11:31.297Z,9.10
2022-12-03T11:14:02.862Z,17.48
2022-12-03T11:16:42.124Z,7.95
2022-12-03T11:19:18.431Z,8.07
2022-12-03T11:22:05.206Z,8.75
2022-12-03T11:24:34.927Z,6.85
2022-12-03T11:27:02.032Z,9.48
2022-12-03T11:30:08.214Z,9.90
2022-12-03T11:32:38.473Z,9.07
2022-12-03T11:35:25.870Z,8.70
2022-12-03T11:37:53.199Z,10.77
2022-12-03T11:40:20.338Z,9.75
2022-12-03T11:42:48.909Z,12.68
2022-12-03T11:45:33.395Z,9.45
2022-12-03T11:48:06.045Z,6.30
2022-12-03T11:50:41.090Z,11.02
2022-12-03T11:55:38.987Z,8.90
2022-12-03T11:58:17.207Z,7.70
2022-12-03T12:00:53.052Z,9.05
2022-12-03T12:03:34.844Z,6.97
2022-12-03T12:06:13.260Z,8.60
2022-12-03T12:08:52.623Z,8.00
2022-12-03T12:11:31.838Z,8.65
2022-12-03T12:14:13.263Z,8.38
2022-12-03T12:16:42.820Z,7.78
2022-12-03T12:19:38.444Z,10.52
2022-12-03T12:22:19.993Z,7.60
2022-12-03T12:24:51.873Z,8.27
2022-12-03T12:27:29.673Z,7.40
2022-12-03T12:29:59.065Z,9.18
2022-12-03T12:32:35.502Z,7.00
2022-12-03T12:35:24.653Z,8.57
2022-12-03T12:38:00.896Z,9.52
2022-12-03T12:40:31.364Z,8.25
2022-12-03T12:43:08.208Z,9.55
2022-12-03T12:45:39.988Z,7.32
2022-12-03T12:48:12.397Z,8.77
2022-12-03T12:50:40.738Z,7.70
2022-12-03T12:53:11.420Z,11.48
2022-12-03T12:55:39.834Z,8.63
2022-12-03T12:58:19.080Z,9.18
2022-12-03T13:00:55.020Z,11.98
2022-12-03T13:03:26.041Z,15.25
2022-12-03T13:05:56.430Z,9.52
2022-12-03T13:08:34.098Z,8.52
2022-12-03T13:11:03.097Z,10.25
2022-12-03T13:13:31.931Z,9.50
2022-12-03T13:16:07.377Z,8.02
2022-12-03T13:18:54.929Z,9.35
2022-12-03T13:21:44.403Z,9.43
2022-12-03T13:24:32.853Z,10.63
2022-12-03T13:27:05.320Z,8.00
2022-12-03T13:29:32.571Z,10.40
2022-12-03T13:32:20.266Z,10.25
2022-12-03T13:34:50.581Z,9.60
2022-12-03T13:37:23.880Z,11.38
2022-12-03T13:39:56.883Z,10.60
2022-12-03T13:42:42.049Z,12.48
2022-12-03T13:45:18.128Z,9.43
2022-12-03T13:47:50.569Z,10.05
2022-12-03T13:50:33.509Z,9.07
2022-12-03T13:53:03.402Z,12.98
2022-12-03T13:55:32.157Z,13.15
2022-12-03T13:57:59.478Z,15.38
2022-12-03T14:00:26.807Z,9.73
2022-12-03T14:02:54.855Z,12.40
2022-12-03T14:05:22.195Z,11.07
2022-12-03T14:07:49.393Z,7.93
2022-12-03T14:10:17.007Z,10.15
2022-12-03T14:12:44.347Z,9.40
2022-12-03T14:15:11.536Z,9.40
2022-12-03T14:17:39.214Z,10.00
2022-12-03T14:20:08.295Z,12.57
2022-12-03T14:22:38.182Z,10.73
2022-12-03T14:25:07.168Z,10.15
2022-12-03T14:27:34.577Z,9.40
2022-12-03T14:30:01.730Z,19.45
2022-12-03T14:32:29.390Z,9.98
2022-12-03T14:34:57.067Z,7.97
2022-12-03T14:37:24.092Z,10.07
2022-12-03T14:39:51.316Z,9.77
2022-12-03T14:42:18.570Z,8.38
2022-12-03T14:44:48.309Z,8.13
2022-12-03T14:47:20.264Z,7.97
2022-12-03T14:49:47.734Z,8.63
2022-12-03T14:52:15.257Z,10.32
2022-12-03T14:54:43.007Z,10.38
2022-12-03T14:57:12.794Z,9.52
2022-12-03T14:59:41.638Z,8.82
2022-12-03T15:02:10.187Z,11.15
2022-12-03T15:04:38.262Z,7.93
2022-12-03T15:07:07.143Z,7.50
2022-12-03T15:09:35.029Z,10.88
2022-12-03T15:12:03.534Z,9.65
2022-12-03T15:14:32.675Z,10.95
2022-12-03T15:17:02.005Z,9.07
2022-12-03T15:19:30.421Z,9.10
2022-12-03T15:22:00.302Z,7.53
2022-12-03T15:24:27.523Z,6.15
2022-12-03T15:26:55.952Z,7.78
2022-12-03T15:29:23.727Z,8.73
2022-12-03T15:31:50.953Z,10.15
2022-12-03T15:34:22.525Z,8.73
2022-12-03T15:36:51.288Z,7.43
2022-12-03T15:39:18.655Z,11.13
2022-12-03T15:41:45.823Z,10.73
2022-12-03T15:44:12.862Z,7.28
2022-12-03T15:46:40.176Z,6.57
2022-12-03T15:49:07.414Z,9.27
2022-12-03T15:51:34.533Z,7.15
2022-12-03T15:54:01.717Z,15.77
2022-12-03T15:56:28.974Z,7.05
2022-12-03T15:58:56.058Z,7.00
2022-12-03T16:01:23.316Z,7.45
2022-12-03T16:03:50.494Z,8.13
2022-12-03T16:06:18.310Z,7.82
2022-12-03T16:08:46.388Z,10.73
2022-12-03T16:11:13.516Z,7.05
2022-12-03T16:13:40.786Z,11.60
2022-12-03T16:16:08.716Z,8.90
2022-12-03T16:18:35.843Z,7.50
2022-12-03T16:21:03.353Z,9.00
2022-12-03T16:23:30.453Z,10.73
2022-12-03T16:25:58.270Z,8.65
2022-12-03T16:28:26.550Z,6.65
2022-12-03T16:30:54.076Z,7.70
2022-12-03T16:33:27.076Z,9.80
2022-12-03T16:35:54.983Z,9.00
2022-12-03T16:38:22.058Z,6.70
2022-12-03T16:40:49.516Z,7.35
2022-12-03T16:43:16.745Z,9.35
2022-12-03T16:46:03.081Z,7.47
2022-12-03T16:48:30.487Z,8.32
2022-12-03T16:50:57.647Z,7.95
2022-12-03T16:53:24.831Z,6.82
2022-12-03T16:55:51.893Z,8.38
2022-12-03T16:58:21.586Z,9.57
2022-12-03T17:00:49.827Z,10.63
2022-12-03T17:03:18.068Z,9.68
2022-12-03T17:05:46.210Z,8.30
2022-12-03T17:08:14.276Z,8.90
2022-12-03T17:10:41.761Z,7.72
2022-12-03T17:13:10.558Z,9.75
2022-12-03T17:15:39.081Z,11.07
2022-12-03T17:18:07.558Z,8.85
2022-12-03T17:20:35.859Z,10.95
2022-12-03T17:23:03.897Z,7.45
2022-12-03T17:25:31.148Z,7.80
2022-12-03T17:27:58.455Z,7.40
2022-12-03T17:30:25.748Z,6.32
2022-12-03T17:32:53.187Z,7.32
2022-12-03T17:35:20.434Z,9.05
2022-12-03T17:37:47.710Z,5.75
2022-12-03T17:40:17.380Z,8.30
2022-12-03T17:42:45.378Z,7.20
2022-12-03T17:45:13.466Z,5.50
2022-12-03T17:47:40.949Z,8.35
2022-12-03T17:50:08.759Z,9.32
2022-12-03T17:52:35.867Z,5.93
2022-12-03T17:55:14.216Z,7.57
2022-12-03T17:57:45.174Z,7.88
2022-12-03T18:00:12.812Z,6.30
2022-12-03T18:02:40.692Z,6.97
2022-12-03T18:05:08.271Z,5.65
2022-12-03T18:07:35.734Z,5.85
2022-12-03T18:10:03.081Z,7.53
2022-12-03T18:12:30.955Z,8.18
2022-12-03T18:14:58.310Z,7.78
2022-12-03T18:17:25.506Z,8.55
2022-12-03T18:19:53.084Z,7.78
2022-12-03T18:22:20.659Z,9.38
2022-12-03T18:24:51.514Z,6.50
2022-12-03T18:27:20.925Z,6.78
2022-12-03T18:29:48.395Z,8.30
2022-12-03T18:32:28.300Z,6.68
2022-12-03T18:34:57.342Z,5.25
2022-12-03T18:37:29.016Z,5.90
2022-12-03T18:39:57.460Z,5.53
2022-12-03T18:42:25.236Z,8.23
2022-12-03T18:44:54.926Z,6.07
2022-12-03T18:47:25.043Z,5.78
2022-12-03T18:49:52.856Z,8.60
2022-12-03T18:52:22.192Z,7.13
2022-12-03T18:54:49.902Z,6.18
2022-12-03T18:57:17.830Z,5.00
2022-12-03T18:59:45.255Z,5.43
2022-12-03T19:02:32.480Z,5.20
2022-12-03T19:05:04.500Z,5.30
2022-12-03T19:07:31.595Z,6.50
2022-12-03T19:09:58.922Z,7.07
2022-12-03T19:12:26.232Z,5.18
2022-12-03T19:14:53.306Z,7.32
2022-12-03T19:17:21.603Z,4.60
2022-12-03T19:19:48.828Z,4.97
2022-12-03T19:22:15.934Z,6.72
2022-12-03T19:24:43.831Z,5.43
2022-12-03T19:27:11.012Z,4.38
2022-12-03T19:29:38.514Z,5.00
2022-12-03T19:32:05.780Z,5.80
2022-12-03T19:34:33.293Z,4.25
2022-12-03T19:37:00.512Z,4.05
2022-12-03T19:39:27.610Z,7.38
2022-12-03T19:41:54.710Z,6.65
2022-12-03T19:44:22.402Z,6.30
2022-12-03T19:46:51.288Z,5.88
2022-12-03T19:49:21.053Z,3.80
2022-12-03T19:51:49.732Z,6.68
2022-12-03T19:54:19.248Z,4.78
2022-12-03T19:56:48.351Z,3.97
2022-12-03T19:59:17.546Z,3.72
2022-12-03T20:01:44.992Z,5.15
2022-12-03T20:04:13.219Z,6.60
2022-12-03T20:06:41.073Z,2.97
2022-12-03T20:09:12.126Z,5.28
2022-12-03T20:11:41.617Z,4.18
2022-12-03T20:14:12.921Z,3.80
2022-12-03T20:16:40.665Z,4.30
2022-12-03T20:19:10.806Z,3.80
2022-12-03T20:21:39.139Z,5.18
2022-12-03T20:24:07.321Z,2.75
2022-12-03T20:26:34.863Z,4.00
2022-12-03T20:29:02.297Z,3.63
2022-12-03T20:31:31.757Z,4.90
2022-12-03T20:34:02.301Z,1.90
2022-12-03T20:36:31.771Z,2.78
2022-12-03T20:39:02.323Z,3.05
2022-12-03T20:41:29.882Z,4.28
2022-12-03T20:43:57.275Z,2.80
2022-12-03T20:46:29.355Z,3.63
2022-12-03T20:48:57.810Z,3.10
2022-12-03T20:51:28.216Z,4.45
2022-12-03T20:53:56.316Z,4.18
2022-12-03T20:56:31.424Z,3.53
2022-12-03T20:59:08.343Z,3.38
2022-12-03T21:01:36.515Z,2.97
2022-12-03T21:04:05.384Z,2.25
2022-12-03T21:06:35.036Z,4.28
2022-12-03T21:09:04.637Z,2.65
2022-12-03T21:11:34.044Z,2.38
2022-12-03T21:14:01.168Z,4.28
2022-12-03T21:17:06.019Z,2.13
2022-12-03T21:19:20.810Z,3.42
2022-12-03T21:21:48.656Z,4.18
2022-12-03T21:24:15.765Z,3.63
2022-12-03T21:26:43.029Z,3.55
2022-12-03T21:29:10.321Z,3.22
2022-12-03T21:31:39.914Z,3.53
2022-12-03T21:34:08.901Z,4.50
2022-12-03T21:36:36.363Z,3.17
2022-12-03T21:39:05.269Z,2.75
2022-12-03T21:41:32.682Z,2.88
2022-12-03T21:43:59.811Z,3.25
2022-12-03T21:47:12.751Z,3.55
2022-12-03T21:49:14.688Z,2.20
2022-12-03T21:51:41.895Z,2.33
2022-12-03T21:54:08.964Z,1.73
2022-12-03T21:56:36.572Z,3.45
2022-12-03T21:59:04.086Z,3.65
2022-12-03T22:01:31.360Z,2.22
2022-12-03T22:03:59.148Z,2.25
2022-12-03T22:06:26.290Z,2.75
2022-12-03T22:08:53.504Z,2.00
2022-12-03T22:11:23.859Z,3.03
2022-12-03T22:13:51.608Z,3.60
2022-12-03T22:16:20.755Z,2.47
2022-12-03T22:18:48.317Z,1.90
2022-12-03T22:21:18.354Z,4.10
2022-12-03T22:23:46.801Z,1.42
2022-12-03T22:26:16.532Z,1.92
2022-12-03T22:28:46.413Z,2.25
2022-12-03T22:31:14.440Z,4.10
2022-12-03T22:33:41.974Z,2.42
2022-12-03T22:36:18.066Z,2.28
2022-12-03T22:38:48.377Z,4.30
2022-12-03T22:41:16.652Z,2.65
2022-12-03T22:43:44.796Z,2.03
2022-12-03T22:46:12.984Z,2.33
2022-12-03T22:48:41.934Z,1.90
2022-12-03T22:51:18.686Z,4.25
2022-12-03T22:53:46.044Z,4.03
2022-12-03T22:56:13.885Z,2.55
2022-12-03T22:58:41.419Z,4.13
2022-12-03T23:01:09.020Z,1.83
2022-12-03T23:03:36.925Z,5.50
2022-12-03T23:06:12.275Z,2.65
2022-12-03T23:08:39.783Z,1.33
2022-12-03T23:11:07.613Z,1.95
2022-12-03T23:13:35.897Z,4.68
2022-12-03T23:16:03.781Z,2.97
2022-12-03T23:18:31.201Z,3.50
2022-12-03T23:20:59.043Z,1.80
2022-12-03T23:23:28.264Z,3.00
2022-12-03T23:26:07.492Z,1.67
2022-12-03T23:28:39.093Z,5.90
2022-12-03T23:31:14.275Z,1.40
2022-12-03T23:36:08.684Z,2.92
2022-12-03T23:38:36.085Z,1.48
2022-12-03T23:41:12.204Z,2.20
2022-12-03T23:43:40.297Z,3.42
2022-12-03T23:46:12.949Z,2.92
2022-12-03T23:48:40.455Z,3.05
2022-12-03T23:51:10.587Z,2.22
2022-12-03T23:53:38.453Z,2.75
2022-12-03T23:56:17.997Z,2.10
2022-12-03T23:58:46.366Z,1.45
